Fox Island, Washington
Current Conditions -  °F | °C
As of 7:53 PM on Tuesday 27 Jan 2015 (Local Time) from KTIW Reporting Station
Overcast Overcast  
Wind Chill: 50°   Ceiling: 1800
Heat Index: 50°   Visibility: 10mi
Dew Point: 45°   Wind: 6mph
Humidity: 83%   Direction: 240°WSW
Pressure: 30.19"   Gusts: NA
Location:  47.25°N, 122.63°W
Report Text: KTIW 280353Z 24005KT 10SM BKN018 OVC024 10/07 A3019 RMK AO2 SLP225 T01000072
Loading
Personal Weather Stations






























Interactive Weather Map New forecast layout! Learn more

10-Day Weather Forecast

Advertisements
Track Severe Weather on mobile